sensor_id;sensor_type;location;lat;lon;timestamp;pressure;altitude;pressure_sealevel;temperature;humidity
21824;BME280;11074;48.596;9.238;2022-08-21T00:02:29;98438.66;;;16.12;100.00
21824;BME280;11074;48.596;9.238;2022-08-21T00:04:55;98437.38;;;16.04;100.00
21824;BME280;11074;48.596;9.238;2022-08-21T00:07:21;98440.28;;;16.08;100.00
21824;BME280;11074;48.596;9.238;2022-08-21T00:09:47;98440.28;;;16.08;100.00
21824;BME280;11074;48.596;9.238;2022-08-21T00:12:13;98436.06;;;15.92;100.00
21824;BME280;11074;48.596;9.238;2022-08-21T00:14:40;98435.56;;;15.90;100.00
21824;BME280;11074;48.596;9.238;2022-08-21T00:17:06;98429.31;;;15.99;100.00
21824;BME280;11074;48.596;9.238;2022-08-21T00:19:32;98422.38;;;15.88;100.00
21824;BME280;11074;48.596;9.238;2022-08-21T00:21:59;98427.44;;;15.95;100.00
21824;BME280;11074;48.596;9.238;2022-08-21T00:24:25;98417.19;;;15.92;100.00
21824;BME280;11074;48.596;9.238;2022-08-21T00:26:52;98421.59;;;15.83;100.00
21824;BME280;11074;48.596;9.238;2022-08-21T00:29:19;98420.47;;;15.89;100.00
21824;BME280;11074;48.596;9.238;2022-08-21T00:31:45;98422.13;;;15.85;100.00
21824;BME280;11074;48.596;9.238;2022-08-21T00:34:13;98419.75;;;15.73;100.00
21824;BME280;11074;48.596;9.238;2022-08-21T00:36:40;98427.00;;;15.83;100.00
21824;BME280;11074;48.596;9.238;2022-08-21T00:39:07;98422.69;;;15.76;100.00
21824;BME280;11074;48.596;9.238;2022-08-21T00:41:36;98418.75;;;15.64;100.00
21824;BME280;11074;48.596;9.238;2022-08-21T00:44:03;98425.69;;;15.75;100.00
21824;BME280;11074;48.596;9.238;2022-08-21T00:46:29;98422.19;;;15.74;100.00
21824;BME280;11074;48.596;9.238;2022-08-21T00:48:56;98417.84;;;15.78;100.00
21824;BME280;11074;48.596;9.238;2022-08-21T00:51:35;98416.53;;;15.71;100.00
21824;BME280;11074;48.596;9.238;2022-08-21T00:54:02;98421.63;;;15.77;100.00
21824;BME280;11074;48.596;9.238;2022-08-21T00:56:29;98422.19;;;15.74;100.00
21824;BME280;11074;48.596;9.238;2022-08-21T00:58:56;98416.28;;;15.67;100.00
21824;BME280;11074;48.596;9.238;2022-08-21T01:01:23;98418.44;;;15.65;100.00
21824;BME280;11074;48.596;9.238;2022-08-21T01:03:49;98420.91;;;15.62;100.00
21824;BME280;11074;48.596;9.238;2022-08-21T01:06:15;98411.50;;;15.59;100.00
21824;BME280;11074;48.596;9.238;2022-08-21T01:08:42;98416.84;;;15.64;100.00
21824;BME280;11074;48.596;9.238;2022-08-21T01:11:08;98414.78;;;15.51;100.00
21824;BME280;11074;48.596;9.238;2022-08-21T01:13:36;98414.47;;;15.53;100.00
21824;BME280;11074;48.596;9.238;2022-08-21T01:16:09;98418.56;;;15.40;100.00
21824;BME280;11074;48.596;9.238;2022-08-21T01:18:35;98416.41;;;15.42;100.00
21824;BME280;11074;48.596;9.238;2022-08-21T01:21:18;98415.31;;;15.48;100.00
21824;BME280;11074;48.596;9.238;2022-08-21T01:23:49;98420.16;;;15.41;100.00
21824;BME280;11074;48.596;9.238;2022-08-21T01:26:24;98414.25;;;15.39;100.00
21824;BME280;11074;48.596;9.238;2022-08-21T01:29:50;98412.97;;;15.27;100.00
21824;BME280;11074;48.596;9.238;2022-08-21T01:32:19;98413.22;;;15.25;100.00
21824;BME280;11074;48.596;9.238;2022-08-21T01:34:48;98408.94;;;15.24;100.00
21824;BME280;11074;48.596;9.238;2022-08-21T01:37:17;98413.31;;;15.05;100.00
21824;BME280;11074;48.596;9.238;2022-08-21T01:39:43;98411.44;;;15.05;100.00
21824;BME280;11074;48.596;9.238;2022-08-21T01:42:10;98412.22;;;15.11;100.00
21824;BME280;11074;48.596;9.238;2022-08-21T01:44:36;98409.31;;;14.97;100.00
21824;BME280;11074;48.596;9.238;2022-08-21T01:47:07;98409.00;;;15.04;100.00
21824;BME280;11074;48.596;9.238;2022-08-21T01:49:34;98406.00;;;15.15;100.00
21824;BME280;11074;48.596;9.238;2022-08-21T01:52:00;98403.59;;;15.09;100.00
21824;BME280;11074;48.596;9.238;2022-08-21T01:54:26;98410.63;;;15.05;100.00
21824;BME280;11074;48.596;9.238;2022-08-21T01:56:54;98411.44;;;15.05;100.00
21824;BME280;11074;48.596;9.238;2022-08-21T01:59:22;98410.34;;;15.01;100.00
21824;BME280;11074;48.596;9.238;2022-08-21T02:01:48;98407.19;;;14.89;100.00
21824;BME280;11074;48.596;9.238;2022-08-21T02:04:14;98398.00;;;14.90;100.00
21824;BME280;11074;48.596;9.238;2022-08-21T02:06:41;98398.78;;;14.96;100.00
21824;BME280;11074;48.596;9.238;2022-08-21T02:09:10;98392.34;;;14.92;100.00
21824;BME280;11074;48.596;9.238;2022-08-21T02:11:36;98388.06;;;14.86;100.00
21824;BME280;11074;48.596;9.238;2022-08-21T02:14:10;98393.47;;;14.81;100.00
21824;BME280;11074;48.596;9.238;2022-08-21T02:16:38;98392.41;;;14.77;100.00
21824;BME280;11074;48.596;9.238;2022-08-21T02:19:05;98389.16;;;14.80;100.00
21824;BME280;11074;48.596;9.238;2022-08-21T02:21:31;98394.88;;;14.58;100.00
21824;BME280;11074;48.596;9.238;2022-08-21T02:23:57;98392.66;;;14.75;100.00
21824;BME280;11074;48.596;9.238;2022-08-21T02:26:23;98394.00;;;14.83;100.00
21824;BME280;11074;48.596;9.238;2022-08-21T02:28:48;98385.16;;;14.67;100.00
21824;BME280;11074;48.596;9.238;2022-08-21T02:31:14;98380.59;;;14.63;100.00
21824;BME280;11074;48.596;9.238;2022-08-21T02:33:40;98378.44;;;14.65;100.00
21824;BME280;11074;48.596;9.238;2022-08-21T02:36:09;98388.94;;;14.61;100.00
21824;BME280;11074;48.596;9.238;2022-08-21T02:38:37;98384.91;;;14.58;100.00
21824;BME280;11074;48.596;9.238;2022-08-21T02:41:11;98380.34;;;14.54;100.00
21824;BME280;11074;48.596;9.238;2022-08-21T02:43:37;98372.28;;;14.49;100.00
21824;BME280;11074;48.596;9.238;2022-08-21T02:46:05;98383.31;;;14.57;100.00
21824;BME280;11074;48.596;9.238;2022-08-21T02:48:33;98376.88;;;14.38;100.00
21824;BME280;11074;48.596;9.238;2022-08-21T02:51:05;98380.59;;;14.63;100.00
21824;BME280;11074;48.596;9.238;2022-08-21T02:53:31;98385.97;;;14.63;100.00
21824;BME280;11074;48.596;9.238;2022-08-21T02:56:00;98386.53;;;14.54;100.00
21824;BME280;11074;48.596;9.238;2022-08-21T02:58:34;98380.88;;;14.56;100.00
21824;BME280;11074;48.596;9.238;2022-08-21T03:01:00;98387.63;;;14.38;100.00
21824;BME280;11074;48.596;9.238;2022-08-21T03:03:28;98388.97;;;14.36;100.00
21824;BME280;11074;48.596;9.238;2022-08-21T03:05:55;98390.31;;;14.33;100.00
21824;BME280;11074;48.596;9.238;2022-08-21T03:08:22;98382.75;;;13.95;100.00
21824;BME280;11074;48.596;9.238;2022-08-21T03:10:52;98382.50;;;14.17;100.00
21824;BME280;11074;48.596;9.238;2022-08-21T03:13:19;98387.88;;;14.22;100.00
21824;BME280;11074;48.596;9.238;2022-08-21T03:15:47;98389.75;;;14.11;100.00
21824;BME280;11074;48.596;9.238;2022-08-21T03:18:13;98388.16;;;14.15;100.00
21824;BME280;11074;48.596;9.238;2022-08-21T03:20:41;98387.59;;;13.98;100.00
21824;BME280;11074;48.596;9.238;2022-08-21T03:23:08;98398.88;;;13.90;100.00
21824;BME280;11074;48.596;9.238;2022-08-21T03:25:34;98398.63;;;13.86;100.00
21824;BME280;11074;48.596;9.238;2022-08-21T03:28:03;98394.59;;;13.99;100.00
21824;BME280;11074;48.596;9.238;2022-08-21T03:30:29;98394.06;;;14.07;100.00
21824;BME280;11074;48.596;9.238;2022-08-21T03:32:58;98393.78;;;14.09;100.00
21824;BME280;11074;48.596;9.238;2022-08-21T03:35:25;98395.13;;;13.96;100.00
21824;BME280;11074;48.596;9.238;2022-08-21T03:37:51;98396.19;;;14.00;100.00
21824;BME280;11074;48.596;9.238;2022-08-21T03:40:18;98392.44;;;14.01;100.00
21824;BME280;11074;48.596;9.238;2022-08-21T03:42:45;98397.81;;;14.11;100.00
21824;BME280;11074;48.596;9.238;2022-08-21T03:45:15;98398.63;;;14.12;100.00
21824;BME280;11074;48.596;9.238;2022-08-21T03:47:57;98394.88;;;14.23;100.00
21824;BME280;11074;48.596;9.238;2022-08-21T03:50:29;98398.34;;;14.08;100.00
21824;BME280;11074;48.596;9.238;2022-08-21T03:52:56;98402.38;;;14.01;100.00
21824;BME280;11074;48.596;9.238;2022-08-21T03:55:22;98398.88;;;14.00;100.00
21824;BME280;11074;48.596;9.238;2022-08-21T03:57:48;98414.19;;;13.79;100.00
21824;BME280;11074;48.596;9.238;2022-08-21T04:00:16;98410.63;;;13.44;100.00
21824;BME280;11074;48.596;9.238;2022-08-21T04:02:43;98408.81;;;13.84;100.00
21824;BME280;11074;48.596;9.238;2022-08-21T04:05:11;98413.13;;;13.70;100.00
21824;BME280;11074;48.596;9.238;2022-08-21T04:07:38;98413.59;;;13.52;100.00
21824;BME280;11074;48.596;9.238;2022-08-21T04:10:06;98407.97;;;13.54;100.00
21824;BME280;11074;48.596;9.238;2022-08-21T04:12:32;98414.38;;;13.48;100.00
21824;BME280;11074;48.596;9.238;2022-08-21T04:14:58;98423.03;;;13.65;100.00
21824;BME280;11074;48.596;9.238;2022-08-21T04:17:24;98423.56;;;13.62;100.00
21824;BME280;11074;48.596;9.238;2022-08-21T04:19:50;98425.97;;;13.63;100.00
21824;BME280;11074;48.596;9.238;2022-08-21T04:22:16;98423.28;;;13.58;100.00
21824;BME280;11074;48.596;9.238;2022-08-21T04:24:42;98418.75;;;13.69;100.00
21824;BME280;11074;48.596;9.238;2022-08-21T04:27:08;98423.34;;;13.78;100.00
21824;BME280;11074;48.596;9.238;2022-08-21T04:29:33;98431.38;;;13.73;100.00
21824;BME280;11074;48.596;9.238;2022-08-21T04:31:59;98434.88;;;13.74;100.00
21824;BME280;11074;48.596;9.238;2022-08-21T04:34:25;98438.56;;;13.43;100.00
21824;BME280;11074;48.596;9.238;2022-08-21T04:36:51;98438.06;;;13.61;100.00
21824;BME280;11074;48.596;9.238;2022-08-21T04:39:16;98440.22;;;13.64;100.00
21824;BME280;11074;48.596;9.238;2022-08-21T04:41:42;98441.53;;;13.51;100.00
21824;BME280;11074;48.596;9.238;2022-08-21T04:44:08;98447.75;;;13.67;100.00
21824;BME280;11074;48.596;9.238;2022-08-21T04:46:34;98447.75;;;13.67;100.00
21824;BME280;11074;48.596;9.238;2022-08-21T04:49:00;98445.06;;;13.57;100.00
21824;BME280;11074;48.596;9.238;2022-08-21T04:51:33;98443.88;;;13.27;100.00
21824;BME280;11074;48.596;9.238;2022-08-21T04:54:14;98442.84;;;13.44;100.00
21824;BME280;11074;48.596;9.238;2022-08-21T04:56:48;98438.06;;;13.61;100.00
21824;BME280;11074;48.596;9.238;2022-08-21T04:59:23;98439.19;;;13.70;100.00
21824;BME280;11074;48.596;9.238;2022-08-21T05:01:51;98448.31;;;13.84;100.00
21824;BME280;11074;48.596;9.238;2022-08-21T05:04:21;98447.53;;;13.83;100.00
21824;BME280;11074;48.596;9.238;2022-08-21T05:06:52;98448.91;;;13.96;100.00
21824;BME280;11074;48.596;9.238;2022-08-21T05:09:22;98449.94;;;13.90;100.00
21824;BME280;11074;48.596;9.238;2022-08-21T05:11:49;98449.94;;;13.90;100.00
21824;BME280;11074;48.596;9.238;2022-08-21T05:14:17;98448.88;;;13.91;100.00
21824;BME280;11074;48.596;9.238;2022-08-21T05:16:43;98456.13;;;13.80;100.00
21824;BME280;11074;48.596;9.238;2022-08-21T05:19:10;98454.25;;;13.91;100.00
21824;BME280;11074;48.596;9.238;2022-08-21T05:21:39;98459.63;;;13.91;100.00
21824;BME280;11074;48.596;9.238;2022-08-21T05:24:05;98458.28;;;13.88;100.00
21824;BME280;11074;48.596;9.238;2022-08-21T05:26:31;98461.81;;;13.94;100.00
21824;BME280;11074;48.596;9.238;2022-08-21T05:28:57;98463.41;;;13.95;100.00
21824;BME280;11074;48.596;9.238;2022-08-21T05:31:22;98462.34;;;14.01;100.00
21824;BME280;11074;48.596;9.238;2022-08-21T05:33:48;98461.28;;;13.97;100.00
21824;BME280;11074;48.596;9.238;2022-08-21T05:36:14;98460.47;;;14.07;100.00
21824;BME280;11074;48.596;9.238;2022-08-21T05:38:40;98461.53;;;14.01;100.00
21824;BME280;11074;48.596;9.238;2022-08-21T05:41:06;98467.72;;;14.01;100.00
21824;BME280;11074;48.596;9.238;2022-08-21T05:43:32;98458.59;;;14.07;100.00
21824;BME280;11074;48.596;9.238;2022-08-21T05:46:03;98461.53;;;14.11;100.00
21824;BME280;11074;48.596;9.238;2022-08-21T05:48:30;98462.91;;;14.23;100.00
21824;BME280;11074;48.596;9.238;2022-08-21T05:50:56;98456.19;;;14.31;100.00
21824;BME280;11074;48.596;9.238;2022-08-21T05:53:23;98460.78;;;14.40;100.00
21824;BME280;11074;48.596;9.238;2022-08-21T05:55:51;98467.50;;;14.48;100.00
21824;BME280;11074;48.596;9.238;2022-08-21T05:58:20;98463.47;;;14.61;100.00
21824;BME280;11074;48.596;9.238;2022-08-21T06:00:49;98452.94;;;14.69;100.00
21824;BME280;11074;48.596;9.238;2022-08-21T06:03:23;98454.84;;;14.74;100.00
21824;BME280;11074;48.596;9.238;2022-08-21T06:05:49;98452.97;;;14.74;100.00
21824;BME280;11074;48.596;9.238;2022-08-21T06:08:17;98450.25;;;14.84;100.00
21824;BME280;11074;48.596;9.238;2022-08-21T06:10:44;98449.16;;;14.90;100.00
21824;BME280;11074;48.596;9.238;2022-08-21T06:13:11;98449.41;;;14.99;100.00
21824;BME280;11074;48.596;9.238;2022-08-21T06:15:37;98456.91;;;15.12;100.00
21824;BME280;11074;48.596;9.238;2022-08-21T06:18:04;98455.25;;;15.26;100.00
21824;BME280;11074;48.596;9.238;2022-08-21T06:20:30;98459.78;;;15.36;100.00
21824;BME280;11074;48.596;9.238;2022-08-21T06:22:56;98450.06;;;15.45;100.00
21824;BME280;11074;48.596;9.238;2022-08-21T06:25:23;98447.38;;;15.45;100.00
21824;BME280;11074;48.596;9.238;2022-08-21T06:27:49;98451.44;;;15.47;100.00
21824;BME280;11074;48.596;9.238;2022-08-21T06:30:15;98458.66;;;15.52;100.00
21824;BME280;11074;48.596;9.238;2022-08-21T06:32:41;98450.00;;;15.60;100.00
21824;BME280;11074;48.596;9.238;2022-08-21T06:35:07;98448.63;;;15.67;100.00
21824;BME280;11074;48.596;9.238;2022-08-21T06:37:33;98448.03;;;15.81;100.00
21824;BME280;11074;48.596;9.238;2022-08-21T06:39:59;98445.53;;;15.89;100.00
21824;BME280;11074;48.596;9.238;2022-08-21T06:42:25;98439.84;;;15.96;100.00
21824;BME280;11074;48.596;9.238;2022-08-21T06:44:53;98444.59;;;16.09;100.00
21824;BME280;11074;48.596;9.238;2022-08-21T06:47:19;98439.97;;;16.14;100.00
21824;BME280;11074;48.596;9.238;2022-08-21T06:49:45;98443.97;;;16.22;100.00
21824;BME280;11074;48.596;9.238;2022-08-21T06:52:12;98445.00;;;16.31;100.00
21824;BME280;11074;48.596;9.238;2022-08-21T06:54:39;98440.34;;;16.36;100.00
21824;BME280;11074;48.596;9.238;2022-08-21T06:57:06;98443.28;;;16.40;100.00
21824;BME280;11074;48.596;9.238;2022-08-21T06:59:32;98431.06;;;16.48;100.00
21824;BME280;11074;48.596;9.238;2022-08-21T07:01:59;98432.09;;;16.57;100.00
21824;BME280;11074;48.596;9.238;2022-08-21T07:04:25;98429.66;;;16.60;100.00
21824;BME280;11074;48.596;9.238;2022-08-21T07:06:51;98437.59;;;16.75;100.00
21824;BME280;11074;48.596;9.238;2022-08-21T07:09:17;98434.94;;;16.70;100.00
21824;BME280;11074;48.596;9.238;2022-08-21T07:11:48;98427.94;;;16.93;98.88
21824;BME280;11074;48.596;9.238;2022-08-21T07:14:15;98441.13;;;17.00;99.02
21824;BME280;11074;48.596;9.238;2022-08-21T07:16:41;98431.28;;;17.09;98.76
21824;BME280;11074;48.596;9.238;2022-08-21T07:19:06;98428.69;;;17.22;96.90
21824;BME280;11074;48.596;9.238;2022-08-21T07:21:32;98425.94;;;17.27;96.51
21824;BME280;11074;48.596;9.238;2022-08-21T07:23:58;98428.44;;;17.24;97.00
21824;BME280;11074;48.596;9.238;2022-08-21T07:26:24;98429.69;;;17.31;96.37
21824;BME280;11074;48.596;9.238;2022-08-21T07:28:52;98423.66;;;17.16;97.03
21824;BME280;11074;48.596;9.238;2022-08-21T07:31:22;98417.06;;;17.27;97.03
21824;BME280;11074;48.596;9.238;2022-08-21T07:33:49;98419.16;;;17.30;98.17
21824;BME280;11074;48.596;9.238;2022-08-21T07:36:15;98420.19;;;17.34;97.30
21824;BME280;11074;48.596;9.238;2022-08-21T07:38:41;98409.81;;;17.41;97.26
21824;BME280;11074;48.596;9.238;2022-08-21T07:41:14;98417.19;;;17.59;95.45
21824;BME280;11074;48.596;9.238;2022-08-21T07:43:40;98415.75;;;17.67;95.44
21824;BME280;11074;48.596;9.238;2022-08-21T07:46:06;98411.59;;;17.74;93.89
21824;BME280;11074;48.596;9.238;2022-08-21T07:48:32;98414.13;;;17.84;95.22
21824;BME280;11074;48.596;9.238;2022-08-21T07:51:06;98420.78;;;17.92;94.51
21824;BME280;11074;48.596;9.238;2022-08-21T07:53:32;98408.97;;;17.88;95.34
21824;BME280;11074;48.596;9.238;2022-08-21T07:55:58;98409.31;;;18.00;92.73
21824;BME280;11074;48.596;9.238;2022-08-21T07:58:24;98413.03;;;18.04;92.67
21824;BME280;11074;48.596;9.238;2022-08-21T08:00:50;98406.31;;;18.01;94.80
21824;BME280;11074;48.596;9.238;2022-08-21T08:03:16;98408.84;;;18.11;94.40
21824;BME280;11074;48.596;9.238;2022-08-21T08:05:41;98408.22;;;18.01;93.64
21824;BME280;11074;48.596;9.238;2022-08-21T08:08:07;98408.22;;;18.01;94.55
21824;BME280;11074;48.596;9.238;2022-08-21T08:10:34;98398.31;;;18.10;93.76
21824;BME280;11074;48.596;9.238;2022-08-21T08:13:00;98401.88;;;18.24;90.13
21824;BME280;11074;48.596;9.238;2022-08-21T08:15:27;98404.31;;;18.39;88.20
21824;BME280;11074;48.596;9.238;2022-08-21T08:17:54;98401.00;;;18.29;87.25
21824;BME280;11074;48.596;9.238;2022-08-21T08:20:20;98397.69;;;18.50;82.78
21824;BME280;11074;48.596;9.238;2022-08-21T08:22:48;98403.22;;;18.59;81.15
21824;BME280;11074;48.596;9.238;2022-08-21T08:25:15;98393.50;;;18.71;78.78
21824;BME280;11074;48.596;9.238;2022-08-21T08:27:42;98390.97;;;18.61;80.05
21824;BME280;11074;48.596;9.238;2022-08-21T08:30:11;98382.47;;;18.68;79.88
21824;BME280;11074;48.596;9.238;2022-08-21T08:32:38;98377.97;;;18.77;80.15
21824;BME280;11074;48.596;9.238;2022-08-21T08:35:05;98379.28;;;18.93;79.51
21824;BME280;11074;48.596;9.238;2022-08-21T08:37:33;98373.84;;;18.93;77.91
21824;BME280;11074;48.596;9.238;2022-08-21T08:39:59;98367.84;;;18.96;79.22
21824;BME280;11074;48.596;9.238;2022-08-21T08:42:35;98372.06;;;18.89;78.29
21824;BME280;11074;48.596;9.238;2022-08-21T08:45:06;98368.84;;;18.87;78.86
21824;BME280;11074;48.596;9.238;2022-08-21T08:47:43;98364.63;;;18.94;80.08
21824;BME280;11074;48.596;9.238;2022-08-21T08:50:21;98369.25;;;19.21;77.24
21824;BME280;11074;48.596;9.238;2022-08-21T08:52:58;98364.53;;;19.13;76.94
21824;BME280;11074;48.596;9.238;2022-08-21T08:55:42;98360.19;;;19.25;77.51
21824;BME280;11074;48.596;9.238;2022-08-21T08:58:18;98351.25;;;19.25;78.23
21824;BME280;11074;48.596;9.238;2022-08-21T09:00:49;98354.56;;;19.35;79.62
21824;BME280;11074;48.596;9.238;2022-08-21T09:03:16;98344.13;;;19.43;82.96
21824;BME280;11074;48.596;9.238;2022-08-21T09:05:49;98357.34;;;19.58;84.38
21824;BME280;11074;48.596;9.238;2022-08-21T09:11:52;98348.84;;;19.73;81.33
21824;BME280;11074;48.596;9.238;2022-08-21T09:14:50;98345.91;;;19.83;75.59
21824;BME280;11074;48.596;9.238;2022-08-21T09:17:59;98331.59;;;19.91;74.49
21824;BME280;11074;48.596;9.238;2022-08-21T09:21:03;98343.19;;;19.83;77.70
21824;BME280;11074;48.596;9.238;2022-08-21T09:26:54;98324.94;;;19.97;76.79
21824;BME280;11074;48.596;9.238;2022-08-21T09:29:26;98330.50;;;20.14;72.95
21824;BME280;11074;48.596;9.238;2022-08-21T09:31:55;98326.78;;;20.10;74.26
21824;BME280;11074;48.596;9.238;2022-08-21T09:34:30;98327.94;;;20.18;70.47
21824;BME280;11074;48.596;9.238;2022-08-21T09:36:58;98327.22;;;20.26;69.85
21824;BME280;11074;48.596;9.238;2022-08-21T09:39:39;98324.03;;;20.24;67.22
21824;BME280;11074;48.596;9.238;2022-08-21T09:42:08;98321.84;;;20.34;72.57
21824;BME280;11074;48.596;9.238;2022-08-21T09:44:39;98321.25;;;20.37;77.52
21824;BME280;11074;48.596;9.238;2022-08-21T09:47:11;98324.31;;;20.44;77.52
21824;BME280;11074;48.596;9.238;2022-08-21T09:49:42;98316.47;;;20.43;75.39
21824;BME280;11074;48.596;9.238;2022-08-21T09:52:21;98314.38;;;20.40;72.98
21824;BME280;11074;48.596;9.238;2022-08-21T09:54:54;98320.78;;;20.44;72.78
21824;BME280;11074;48.596;9.238;2022-08-21T09:57:27;98320.66;;;20.49;68.08
21824;BME280;11074;48.596;9.238;2022-08-21T10:00:31;98312.84;;;20.56;74.12
21824;BME280;11074;48.596;9.238;2022-08-21T10:06:19;98310.19;;;20.65;65.37
21824;BME280;11074;48.596;9.238;2022-08-21T10:08:40;98306.06;;;20.76;64.39
21824;BME280;11074;48.596;9.238;2022-08-21T10:11:11;98304.00;;;20.81;64.47
21824;BME280;11074;48.596;9.238;2022-08-21T10:14:23;98303.25;;;20.98;63.15
21824;BME280;11074;48.596;9.238;2022-08-21T10:19:58;98286.16;;;21.06;65.12
21824;BME280;11074;48.596;9.238;2022-08-21T10:25:17;98288.47;;;21.30;58.27
21824;BME280;11074;48.596;9.238;2022-08-21T10:28:40;98291.19;;;21.38;61.49
21824;BME280;11074;48.596;9.238;2022-08-21T10:33:46;98286.56;;;21.47;59.65
21824;BME280;11074;48.596;9.238;2022-08-21T10:36:26;98286.06;;;21.45;60.73
21824;BME280;11074;48.596;9.238;2022-08-21T10:42:12;98285.75;;;21.64;60.02
21824;BME280;11074;48.596;9.238;2022-08-21T10:44:56;98282.84;;;21.69;60.44
21824;BME280;11074;48.596;9.238;2022-08-21T10:47:53;98273.88;;;21.77;62.98
21824;BME280;11074;48.596;9.238;2022-08-21T10:53:22;98262.88;;;21.82;62.48
21824;BME280;11074;48.596;9.238;2022-08-21T10:56:23;98253.56;;;21.83;60.49
21824;BME280;11074;48.596;9.238;2022-08-21T11:02:17;98259.00;;;22.09;55.28
21824;BME280;11074;48.596;9.238;2022-08-21T11:05:06;98254.31;;;22.09;55.28
21824;BME280;11074;48.596;9.238;2022-08-21T11:07:46;98255.41;;;22.17;58.56
21824;BME280;11074;48.596;9.238;2022-08-21T11:10:46;98245.16;;;22.22;59.13
21824;BME280;11074;48.596;9.238;2022-08-21T11:13:26;98244.84;;;22.24;59.33
21824;BME280;11074;48.596;9.238;2022-08-21T11:16:03;98241.28;;;22.32;64.01
21824;BME280;11074;48.596;9.238;2022-08-21T11:18:53;98244.13;;;22.35;62.61
21824;BME280;11074;48.596;9.238;2022-08-21T11:21:43;98238.88;;;22.30;65.25
21824;BME280;11074;48.596;9.238;2022-08-21T11:27:24;98246.16;;;22.64;53.28
21824;BME280;11074;48.596;9.238;2022-08-21T11:30:00;98238.41;;;22.75;53.99
21824;BME280;11074;48.596;9.238;2022-08-21T11:33:24;98234.75;;;22.91;54.29
21824;BME280;11074;48.596;9.238;2022-08-21T11:36:10;98235.66;;;23.04;53.66
21824;BME280;11074;48.596;9.238;2022-08-21T11:38:55;98233.31;;;23.15;53.31
21824;BME280;11074;48.596;9.238;2022-08-21T11:41:37;98231.66;;;23.02;50.36
21824;BME280;11074;48.596;9.238;2022-08-21T11:47:15;98225.47;;;23.34;50.72
21824;BME280;11074;48.596;9.238;2022-08-21T11:49:57;98218.16;;;23.46;53.84
21824;BME280;11074;48.596;9.238;2022-08-21T11:52:40;98208.22;;;23.63;51.91
21824;BME280;11074;48.596;9.238;2022-08-21T11:55:18;98212.22;;;23.65;58.08
21824;BME280;11074;48.596;9.238;2022-08-21T11:58:00;98206.13;;;23.80;58.51
21824;BME280;11074;48.596;9.238;2022-08-21T12:00:39;98205.44;;;23.71;56.24
21824;BME280;11074;48.596;9.238;2022-08-21T12:03:55;98207.25;;;23.79;55.78
21824;BME280;11074;48.596;9.238;2022-08-21T12:06:41;98207.28;;;23.91;58.37
21824;BME280;11074;48.596;9.238;2022-08-21T12:09:34;98206.84;;;24.01;57.15
21824;BME280;11074;48.596;9.238;2022-08-21T12:12:29;98208.56;;;24.06;47.90
21824;BME280;11074;48.596;9.238;2022-08-21T12:20:34;98198.63;;;24.34;53.28
21824;BME280;11074;48.596;9.238;2022-08-21T12:23:28;98188.94;;;24.49;50.95
21824;BME280;11074;48.596;9.238;2022-08-21T12:26:17;98188.00;;;24.57;53.82
21824;BME280;11074;48.596;9.238;2022-08-21T12:28:45;98188.94;;;24.61;53.36
21824;BME280;11074;48.596;9.238;2022-08-21T12:31:24;98184.13;;;24.70;55.77
21824;BME280;11074;48.596;9.238;2022-08-21T12:33:59;98182.56;;;24.69;53.98
21824;BME280;11074;48.596;9.238;2022-08-21T12:36:48;98177.88;;;24.69;48.80
21824;BME280;11074;48.596;9.238;2022-08-21T12:39:23;98177.53;;;24.83;50.46
21824;BME280;11074;48.596;9.238;2022-08-21T12:44:46;98172.00;;;25.07;46.05
21824;BME280;11074;48.596;9.238;2022-08-21T12:50:40;98164.81;;;25.15;47.29
21824;BME280;11074;48.596;9.238;2022-08-21T12:53:09;98158.31;;;25.19;50.88
21824;BME280;11074;48.596;9.238;2022-08-21T12:55:42;98168.38;;;25.31;51.42
21824;BME280;11074;48.596;9.238;2022-08-21T12:58:22;98172.63;;;25.28;49.16
21824;BME280;11074;48.596;9.238;2022-08-21T13:01:05;98161.69;;;25.28;52.01
21824;BME280;11074;48.596;9.238;2022-08-21T13:03:36;98167.06;;;25.25;51.16
21824;BME280;11074;48.596;9.238;2022-08-21T13:06:06;98159.94;;;25.08;50.72
21824;BME280;11074;48.596;9.238;2022-08-21T13:08:36;98155.81;;;25.14;45.92
21824;BME280;11074;48.596;9.238;2022-08-21T13:11:05;98156.66;;;25.30;46.74
21824;BME280;11074;48.596;9.238;2022-08-21T13:13:33;98154.09;;;25.50;45.02
21824;BME280;11074;48.596;9.238;2022-08-21T13:16:04;98154.81;;;25.47;45.96
21824;BME280;11074;48.596;9.238;2022-08-21T13:18:34;98155.78;;;25.54;43.63
21824;BME280;11074;48.596;9.238;2022-08-21T13:21:14;98149.63;;;25.57;47.48
21824;BME280;11074;48.596;9.238;2022-08-21T13:23:41;98149.44;;;25.66;42.93
21824;BME280;11074;48.596;9.238;2022-08-21T13:26:18;98149.03;;;25.79;46.66
21824;BME280;11074;48.596;9.238;2022-08-21T13:28:46;98149.66;;;25.73;46.95
21824;BME280;11074;48.596;9.238;2022-08-21T13:31:29;98145.03;;;25.77;49.91
21824;BME280;11074;48.596;9.238;2022-08-21T13:33:56;98144.06;;;25.69;50.79
21824;BME280;11074;48.596;9.238;2022-08-21T13:36:32;98139.13;;;25.75;42.98
21824;BME280;11074;48.596;9.238;2022-08-21T13:38:59;98138.16;;;25.83;44.02
21824;BME280;11074;48.596;9.238;2022-08-21T13:41:29;98141.88;;;25.90;46.62
21824;BME280;11074;48.596;9.238;2022-08-21T13:46:30;98131.44;;;25.96;48.07
21824;BME280;11074;48.596;9.238;2022-08-21T13:49:00;98123.59;;;25.95;47.05
21824;BME280;11074;48.596;9.238;2022-08-21T13:51:27;98129.50;;;26.12;45.85
21824;BME280;11074;48.596;9.238;2022-08-21T13:53:54;98123.34;;;26.31;43.00
21824;BME280;11074;48.596;9.238;2022-08-21T13:56:40;98132.19;;;26.40;45.30
21824;BME280;11074;48.596;9.238;2022-08-21T13:59:07;98130.38;;;26.47;43.12
21824;BME280;11074;48.596;9.238;2022-08-21T14:01:37;98122.16;;;26.47;39.82
21824;BME280;11074;48.596;9.238;2022-08-21T14:04:22;98130.44;;;26.51;39.99
21824;BME280;11074;48.596;9.238;2022-08-21T14:06:50;98129.22;;;26.48;44.20